Time;durP1;ratioP1;P1;durP2;ratioP2;P2;SDS_P1;SDS_P2;PMS_P1;PMS_P2;Temp;Humidity;BMP_temperature;BMP_pressure;BME280_temperature;BME280_humidity;BME280_pressure;Samples;Min_cycle;Max_cycle;Signal;HPM_P1;HPM_P2
2023/12/25 00:02:14;;;;;;;2.42;1.63;;;11.00;78.30;;;;;;4925061;29;20039;-91
2023/12/25 00:04:41;;;;;;;1.98;1.05;;;11.00;78.30;;;;;;4929805;29;20035;-91
2023/12/25 00:07:08;;;;;;;2.92;1.45;;;11.00;77.80;;;;;;4939362;29;20043;-92
2023/12/25 00:09:37;;;;;;;3.88;1.55;;;10.90;78.70;;;;;;4926133;29;20031;-91
2023/12/25 00:12:03;;;;;;;3.75;1.52;;;10.90;78.70;;;;;;4934148;29;20563;-91
2023/12/25 00:14:29;;;;;;;2.45;1.58;;;11.00;79.10;;;;;;4930384;29;20563;-91
2023/12/25 00:16:54;;;;;;;2.47;1.83;;;10.80;79.40;;;;;;4943898;29;20032;-91
2023/12/25 00:19:27;;;;;;;2.50;1.42;;;10.80;79.70;;;;;;4935059;29;20103;-92
2023/12/25 00:21:53;;;;;;;3.70;1.50;;;10.80;79.50;;;;;;4945296;29;20024;-92
2023/12/25 00:24:19;;;;;;;2.03;1.08;;;10.80;79.50;;;;;;4944360;29;20111;-89
2023/12/25 00:26:44;;;;;;;2.88;1.83;;;10.80;79.70;;;;;;4945366;29;20042;-91
2023/12/25 00:29:10;;;;;;;2.88;1.55;;;10.80;79.10;;;;;;4945497;29;20031;-91
2023/12/25 00:31:35;;;;;;;4.90;1.80;;;10.80;79.40;;;;;;4944385;29;20063;-91
2023/12/25 00:34:01;;;;;;;3.85;1.45;;;10.80;79.80;;;;;;4926942;29;20116;-91
2023/12/25 00:36:27;;;;;;;1.88;1.48;;;10.80;80.30;;;;;;4938581;29;20031;-92
2023/12/25 00:38:52;;;;;;;2.78;1.55;;;10.90;79.50;;;;;;4944492;29;20043;-91
2023/12/25 00:41:18;;;;;;;2.28;1.73;;;10.80;80.00;;;;;;4942146;29;20036;-91
2023/12/25 00:43:44;;;;;;;2.72;1.20;;;10.80;80.60;;;;;;4938066;29;20494;-91
2023/12/25 00:46:10;;;;;;;1.88;1.25;;;10.80;80.50;;;;;;4927312;29;20078;-92
2023/12/25 00:48:45;;;;;;;3.35;1.73;;;10.80;80.20;;;;;;4944000;29;20038;-90
2023/12/25 00:51:11;;;;;;;3.10;2.50;;;10.80;80.00;;;;;;4936539;29;20411;-91
2023/12/25 00:53:39;;;;;;;2.55;1.58;;;10.80;80.20;;;;;;4938254;29;20075;-91
2023/12/25 00:56:05;;;;;;;2.97;1.17;;;10.80;80.80;;;;;;4935204;29;20546;-91
2023/12/25 00:58:31;;;;;;;4.00;1.55;;;10.70;80.50;;;;;;4941169;29;20024;-90
2023/12/25 01:01:00;;;;;;;2.20;1.30;;;10.70;81.50;;;;;;4919962;29;20024;-91
2023/12/25 01:03:25;;;;;;;3.83;1.85;;;10.70;81.00;;;;;;4938074;29;20034;-90
2023/12/25 01:05:51;;;;;;;2.28;1.13;;;10.60;81.50;;;;;;4929135;29;20024;-92
2023/12/25 01:08:22;;;;;;;1.83;1.55;;;10.60;81.30;;;;;;4926148;29;20084;-90
2023/12/25 01:10:47;;;;;;;2.58;1.10;;;10.60;81.80;;;;;;4941008;29;20096;-91
2023/12/25 01:13:13;;;;;;;3.08;2.78;;;10.70;81.80;;;;;;4930137;29;20072;-92
2023/12/25 01:15:39;;;;;;;2.55;1.23;;;10.60;82.10;;;;;;4924666;29;20024;-91
2023/12/25 01:18:04;;;;;;;1.58;1.00;;;10.60;82.20;;;;;;4934319;29;20029;-91
2023/12/25 01:20:30;;;;;;;1.67;1.33;;;10.60;81.60;;;;;;4925286;29;20471;-91
2023/12/25 01:22:56;;;;;;;1.50;1.30;;;10.50;82.50;;;;;;4928380;29;20071;-91
2023/12/25 01:25:22;;;;;;;1.70;0.98;;;10.50;82.60;;;;;;4932872;29;20044;-90
2023/12/25 01:27:47;;;;;;;3.25;1.63;;;10.50;83.00;;;;;;4932911;29;20047;-91
2023/12/25 01:30:13;;;;;;;2.90;0.98;;;10.50;83.10;;;;;;4938049;29;20103;-91
2023/12/25 01:32:48;;;;;;;2.50;1.27;;;10.40;83.50;;;;;;4932484;29;20542;-91
2023/12/25 01:35:14;;;;;;;3.08;1.48;;;10.40;84.00;;;;;;4941020;29;20028;-91
2023/12/25 01:37:43;;;;;;;1.48;1.15;;;10.40;83.50;;;;;;4921299;29;20091;-91
2023/12/25 01:40:09;;;;;;;2.72;1.10;;;10.40;84.10;;;;;;4934644;29;20483;-90
2023/12/25 01:42:35;;;;;;;1.73;1.63;;;10.30;83.80;;;;;;4944107;29;20510;-91
2023/12/25 01:45:00;;;;;;;2.55;1.42;;;10.30;84.00;;;;;;4918287;29;20020;-92
2023/12/25 01:47:26;;;;;;;1.67;1.50;;;10.40;84.00;;;;;;4929361;29;20107;-91
2023/12/25 01:49:52;;;;;;;1.55;1.30;;;10.40;83.80;;;;;;4925079;29;20024;-91
2023/12/25 01:52:18;;;;;;;2.55;1.52;;;10.40;83.50;;;;;;4933550;29;20030;-91
2023/12/25 01:54:44;;;;;;;2.63;2.42;;;10.40;83.00;;;;;;4918136;29;20407;-92
2023/12/25 01:57:10;;;;;;;2.40;1.63;;;10.40;83.60;;;;;;4939210;29;20028;-93
2023/12/25 01:59:36;;;;;;;1.83;1.13;;;10.30;83.80;;;;;;4937495;29;20031;-92
2023/12/25 02:02:02;;;;;;;3.03;1.05;;;10.30;83.60;;;;;;4934903;29;20024;-90
2023/12/25 02:04:28;;;;;;;1.55;1.08;;;10.30;83.80;;;;;;4936318;29;20024;-92
2023/12/25 02:07:00;;;;;;;1.58;1.40;;;10.40;83.00;;;;;;4943707;29;20047;-92
2023/12/25 02:09:26;;;;;;;2.45;1.17;;;10.30;82.50;;;;;;4918608;29;20052;-90
2023/12/25 02:11:52;;;;;;;2.13;1.30;;;10.40;83.10;;;;;;4937232;29;20031;-91
2023/12/25 02:14:18;;;;;;;1.83;1.70;;;10.40;83.50;;;;;;4916810;29;20111;-90
2023/12/25 02:16:49;;;;;;;1.65;1.55;;;10.30;83.30;;;;;;4944030;29;20035;-92
2023/12/25 02:19:29;;;;;;;2.38;1.48;;;10.30;83.60;;;;;;4943208;29;20509;-91
2023/12/25 02:21:57;;;;;;;2.35;1.40;;;10.40;83.10;;;;;;4943334;29;20024;-90
2023/12/25 02:24:28;;;;;;;1.45;1.35;;;10.40;82.50;;;;;;4939644;29;20024;-92
2023/12/25 02:27:14;;;;;;;1.58;1.17;;;10.40;83.40;;;;;;4940960;29;20505;-91
2023/12/25 02:29:40;;;;;;;1.55;1.45;;;10.40;83.10;;;;;;4945219;29;20090;-91
2023/12/25 02:32:05;;;;;;;3.20;1.45;;;10.40;83.80;;;;;;4939217;29;20288;-91
2023/12/25 02:34:34;;;;;;;1.27;0.98;;;10.40;83.20;;;;;;4937922;29;20032;-94
2023/12/25 02:37:02;;;;;;;1.58;1.30;;;10.30;83.80;;;;;;4925838;29;20027;-91
2023/12/25 02:39:28;;;;;;;2.53;1.75;;;10.40;83.70;;;;;;4933673;29;20036;-92
2023/12/25 02:41:53;;;;;;;1.60;1.50;;;10.40;83.80;;;;;;4940732;29;20051;-91
2023/12/25 02:44:19;;;;;;;1.60;1.30;;;10.30;83.70;;;;;;4933717;29;20099;-92
2023/12/25 02:46:45;;;;;;;2.25;1.30;;;10.30;83.80;;;;;;4932447;29;20035;-91
2023/12/25 02:49:10;;;;;;;1.67;1.58;;;10.40;83.70;;;;;;4923911;29;20036;-92
2023/12/25 02:51:36;;;;;;;2.60;1.48;;;10.40;83.10;;;;;;4925339;29;20055;-92
2023/12/25 02:54:02;;;;;;;3.35;0.98;;;10.30;83.00;;;;;;4928456;29;20035;-91
2023/12/25 02:56:27;;;;;;;1.25;1.00;;;10.30;83.00;;;;;;4930964;29;20096;-90
2023/12/25 02:58:53;;;;;;;1.85;1.38;;;10.30;83.70;;;;;;4943339;29;20024;-92
2023/12/25 03:01:18;;;;;;;1.50;1.38;;;10.30;83.50;;;;;;4942815;29;20034;-91
2023/12/25 03:03:47;;;;;;;2.58;1.83;;;10.30;83.30;;;;;;4928418;29;20032;-92
2023/12/25 03:06:15;;;;;;;1.52;1.42;;;10.20;83.30;;;;;;4935678;29;20036;-95
2023/12/25 03:08:41;;;;;;;2.28;1.40;;;10.30;83.40;;;;;;4929187;29;20028;-92
2023/12/25 03:11:06;;;;;;;2.00;1.10;;;10.30;83.80;;;;;;4943384;29;20052;-91
2023/12/25 03:13:34;;;;;;;2.47;1.30;;;10.30;82.50;;;;;;4943109;29;20051;-92
2023/12/25 03:16:07;;;;;;;2.80;1.33;;;10.30;82.00;;;;;;4925131;29;20027;-92
2023/12/25 03:18:33;;;;;;;3.03;1.08;;;10.40;81.30;;;;;;4923076;29;20475;-91
2023/12/25 03:21:00;;;;;;;1.17;1.00;;;10.30;81.80;;;;;;4926201;29;20122;-89
2023/12/25 03:23:25;;;;;;;2.83;1.08;;;10.30;82.10;;;;;;4943577;29;20028;-91
2023/12/25 03:25:51;;;;;;;3.65;3.35;;;10.30;81.90;;;;;;4935666;29;20030;-91
2023/12/25 03:28:19;;;;;;;1.38;1.27;;;10.30;82.40;;;;;;4942822;29;20117;-90
2023/12/25 03:30:45;;;;;;;3.15;1.67;;;10.30;82.00;;;;;;4942163;29;20028;-91
2023/12/25 03:33:10;;;;;;;1.42;0.98;;;10.30;81.80;;;;;;4942039;29;20055;-89
2023/12/25 03:35:36;;;;;;;1.10;0.95;;;10.30;81.50;;;;;;4937475;29;20088;-91
2023/12/25 03:38:02;;;;;;;0.82;0.77;;;10.30;81.70;;;;;;4924440;29;20031;-92
2023/12/25 03:40:30;;;;;;;1.17;1.10;;;10.30;82.20;;;;;;4929877;29;20034;-93
2023/12/25 03:42:55;;;;;;;;;;;10.30;82.10;;;;;;4917285;29;20020;-94
2023/12/25 03:45:21;;;;;;;1.67;0.93;;;10.20;82.90;;;;;;4954744;29;19931;-92
2023/12/25 03:47:51;;;;;;;1.02;0.98;;;10.20;83.00;;;;;;4938635;29;20029;-91
2023/12/25 03:50:19;;;;;;;1.30;1.20;;;10.20;82.90;;;;;;4931057;29;20051;-90
2023/12/25 03:52:45;;;;;;;1.95;1.17;;;10.20;82.80;;;;;;4945304;29;20031;-92
2023/12/25 03:55:10;;;;;;;1.50;1.08;;;10.20;83.10;;;;;;4930018;29;20122;-91
2023/12/25 03:57:36;;;;;;;1.42;1.33;;;10.20;83.70;;;;;;4942583;29;20026;-91
2023/12/25 04:00:03;;;;;;;3.10;2.78;;;10.20;83.90;;;;;;4939550;29;20409;-92
2023/12/25 04:02:28;;;;;;;3.28;2.08;;;10.20;84.10;;;;;;4942112;29;20024;-91
2023/12/25 04:04:57;;;;;;;1.85;1.40;;;10.20;84.20;;;;;;4926089;29;20034;-91
2023/12/25 04:07:23;;;;;;;1.45;1.35;;;10.20;83.90;;;;;;4939821;29;20027;-91
2023/12/25 04:09:48;;;;;;;2.65;1.70;;;10.20;83.10;;;;;;4935604;29;20046;-91
2023/12/25 04:12:14;;;;;;;1.60;1.00;;;10.20;83.40;;;;;;4913593;29;20494;-92
2023/12/25 04:14:40;;;;;;;1.88;1.10;;;10.20;83.60;;;;;;4947813;29;20109;-91
2023/12/25 04:17:09;;;;;;;1.73;1.23;;;10.20;84.10;;;;;;4927586;29;20023;-92
2023/12/25 04:19:38;;;;;;;1.23;0.85;;;10.20;83.10;;;;;;4930052;29;20023;-92
2023/12/25 04:22:06;;;;;;;1.45;1.30;;;10.10;84.00;;;;;;4929409;29;20036;-91
2023/12/25 04:24:32;;;;;;;3.42;3.08;;;10.20;83.40;;;;;;4942467;29;20263;-90
2023/12/25 04:26:57;;;;;;;1.27;1.17;;;10.10;83.30;;;;;;4920841;29;20034;-91
2023/12/25 04:29:23;;;;;;;1.67;0.70;;;10.20;82.70;;;;;;4938161;29;20035;-91
2023/12/25 04:31:49;;;;;;;1.20;1.10;;;10.20;83.00;;;;;;4946014;29;20031;-91
2023/12/25 04:34:16;;;;;;;1.45;1.35;;;10.20;83.00;;;;;;4929118;29;20028;-92
2023/12/25 04:36:41;;;;;;;1.13;0.82;;;10.20;82.70;;;;;;4939611;29;20020;-91
2023/12/25 04:39:07;;;;;;;1.55;1.45;;;10.10;83.00;;;;;;4920712;29;20020;-91
2023/12/25 04:41:33;;;;;;;1.33;1.00;;;10.10;81.90;;;;;;4941529;29;20035;-91
2023/12/25 04:44:04;;;;;;;2.67;2.55;;;10.20;81.80;;;;;;4943815;29;20272;-91
2023/12/25 04:46:29;;;;;;;2.08;1.52;;;10.10;81.60;;;;;;4938812;29;20027;-91
2023/12/25 04:48:55;;;;;;;3.08;1.48;;;10.10;81.70;;;;;;4926328;29;20035;-92
2023/12/25 04:51:21;;;;;;;1.25;1.15;;;10.10;81.90;;;;;;4946476;29;20035;-90
2023/12/25 04:53:47;;;;;;;1.25;1.15;;;10.00;81.80;;;;;;4931574;29;20032;-92
2023/12/25 04:56:12;;;;;;;1.88;0.95;;;10.10;81.50;;;;;;4943067;29;20495;-90
2023/12/25 04:58:41;;;;;;;3.95;2.13;;;10.10;81.50;;;;;;4927222;29;20479;-91
2023/12/25 05:01:07;;;;;;;1.90;1.60;;;10.00;80.80;;;;;;4937441;29;20020;-91
2023/12/25 05:03:32;;;;;;;1.73;1.63;;;10.10;81.10;;;;;;4927791;29;20031;-92
2023/12/25 05:05:59;;;;;;;1.38;1.23;;;10.10;79.70;;;;;;4945245;29;20474;-93
2023/12/25 05:08:25;;;;;;;1.58;1.48;;;10.10;80.80;;;;;;4928016;29;20120;-92
2023/12/25 05:10:51;;;;;;;2.92;2.35;;;10.00;81.50;;;;;;4924589;29;20440;-91
2023/12/25 05:13:17;;;;;;;2.03;1.13;;;10.00;80.60;;;;;;4920699;29;20118;-93
2023/12/25 05:15:42;;;;;;;2.38;1.42;;;10.00;81.60;;;;;;4927666;29;20055;-91
2023/12/25 05:18:08;;;;;;;2.13;1.20;;;10.00;80.20;;;;;;4927384;29;20028;-91
2023/12/25 05:20:48;;;;;;;1.88;1.13;;;10.00;81.40;;;;;;4944882;29;20039;-91
2023/12/25 05:23:20;;;;;;;1.75;1.10;;;10.00;80.80;;;;;;4936934;29;20024;-91
2023/12/25 05:25:45;;;;;;;1.10;1.00;;;10.00;81.20;;;;;;4924201;29;20028;-90
2023/12/25 05:28:11;;;;;;;1.25;0.98;;;10.00;80.80;;;;;;4940036;29;20046;-91
2023/12/25 05:30:37;;;;;;;2.78;1.98;;;10.00;80.70;;;;;;4923756;29;20046;-91
2023/12/25 05:33:03;;;;;;;2.17;1.55;;;10.00;81.20;;;;;;4925863;29;20035;-92
2023/12/25 05:35:29;;;;;;;2.42;2.30;;;10.00;81.20;;;;;;4934739;29;20035;-92
2023/12/25 05:37:55;;;;;;;1.48;1.33;;;10.00;81.40;;;;;;4934553;29;20024;-93
2023/12/25 05:40:22;;;;;;;1.55;1.02;;;10.00;81.00;;;;;;4937406;29;20016;-93
2023/12/25 05:42:48;;;;;;;3.00;2.80;;;10.00;80.60;;;;;;4943464;29;20580;-93
2023/12/25 05:45:13;;;;;;;1.10;0.93;;;10.00;80.50;;;;;;4940179;29;20183;-91
2023/12/25 05:47:39;;;;;;;1.60;1.50;;;10.00;80.50;;;;;;4927369;29;20059;-91
2023/12/25 05:50:08;;;;;;;3.38;1.30;;;10.00;80.20;;;;;;4937392;29;20059;-91
2023/12/25 05:52:34;;;;;;;1.70;1.38;;;10.00;80.70;;;;;;4944757;29;20035;-93
2023/12/25 05:55:00;;;;;;;2.08;1.20;;;10.00;80.20;;;;;;4941736;29;20047;-91
2023/12/25 05:57:27;;;;;;;1.35;1.23;;;9.90;80.00;;;;;;4920151;29;20052;-92
2023/12/25 05:59:53;;;;;;;2.65;1.38;;;10.00;80.60;;;;;;4928443;29;20020;-92
2023/12/25 06:02:21;;;;;;;3.05;1.33;;;10.00;80.30;;;;;;4929071;29;20034;-92
2023/12/25 06:04:47;;;;;;;2.63;2.53;;;9.90;80.50;;;;;;4937833;29;20383;-91
2023/12/25 06:07:13;;;;;;;2.20;1.38;;;9.90;80.70;;;;;;4943953;29;20031;-92
2023/12/25 06:09:38;;;;;;;1.85;1.05;;;9.90;80.80;;;;;;4935686;29;20525;-91
2023/12/25 06:12:05;;;;;;;2.13;1.27;;;9.90;81.00;;;;;;4933623;29;20106;-92
2023/12/25 06:14:30;;;;;;;1.75;1.65;;;9.80;81.30;;;;;;4937072;29;20054;-92
2023/12/25 06:16:56;;;;;;;1.98;1.60;;;9.80;81.30;;;;;;4942320;29;20036;-91
2023/12/25 06:19:22;;;;;;;1.50;1.40;;;9.80;81.10;;;;;;4922777;29;20024;-90
2023/12/25 06:21:48;;;;;;;1.58;1.48;;;9.70;81.10;;;;;;4938229;29;20095;-91
2023/12/25 06:24:13;;;;;;;2.42;1.70;;;9.70;81.10;;;;;;4935466;29;20526;-92
2023/12/25 06:26:39;;;;;;;2.70;2.50;;;9.70;81.30;;;;;;4935810;29;20384;-93
2023/12/25 06:29:05;;;;;;;2.70;1.27;;;9.70;80.80;;;;;;4921689;29;20043;-91
2023/12/25 06:31:31;;;;;;;4.43;2.65;;;9.70;80.40;;;;;;4919060;29;20399;-90
2023/12/25 06:33:59;;;;;;;2.92;1.63;;;9.70;80.40;;;;;;4938918;29;20027;-91
2023/12/25 06:36:25;;;;;;;1.83;1.15;;;9.60;79.80;;;;;;4941014;29;20036;-93
2023/12/25 06:38:50;;;;;;;2.35;1.48;;;9.70;80.70;;;;;;4921507;29;20028;-88
2023/12/25 06:41:16;;;;;;;1.42;0.98;;;9.70;79.90;;;;;;4921875;29;20020;-91
2023/12/25 06:43:42;;;;;;;1.70;0.93;;;9.60;79.90;;;;;;4920140;29;20051;-92
2023/12/25 06:46:08;;;;;;;3.42;1.00;;;9.70;78.90;;;;;;4925875;29;20036;-92
2023/12/25 06:48:33;;;;;;;1.80;1.38;;;9.60;78.50;;;;;;4936370;29;20115;-94
2023/12/25 06:51:00;;;;;;;2.33;1.42;;;9.70;78.60;;;;;;4931495;29;20027;-91
2023/12/25 06:53:25;;;;;;;2.17;1.30;;;9.70;77.80;;;;;;4922246;29;20088;-91
2023/12/25 06:55:51;;;;;;;2.33;2.20;;;9.60;77.80;;;;;;4938907;29;20435;-91
2023/12/25 06:58:17;;;;;;;2.17;1.75;;;9.60;77.60;;;;;;4925464;29;20028;-88
2023/12/25 07:00:42;;;;;;;1.48;1.10;;;9.60;77.30;;;;;;4935813;29;20020;-91
2023/12/25 07:03:09;;;;;;;2.13;1.42;;;9.60;77.60;;;;;;4941687;29;20060;-93
2023/12/25 07:05:34;;;;;;;2.88;1.55;;;9.50;76.70;;;;;;4930136;29;20085;-92
2023/12/25 07:08:02;;;;;;;1.60;1.10;;;9.50;76.90;;;;;;4934623;29;20059;-91
2023/12/25 07:10:28;;;;;;;1.35;1.25;;;9.50;76.50;;;;;;4922185;29;20039;-90
2023/12/25 07:12:53;;;;;;;1.58;1.48;;;9.50;75.60;;;;;;4939186;29;20052;-92
2023/12/25 07:15:19;;;;;;;3.22;1.42;;;9.50;75.60;;;;;;4925427;29;20574;-92
2023/12/25 07:17:45;;;;;;;2.40;1.40;;;9.50;75.10;;;;;;4923589;29;20065;-92
2023/12/25 07:20:11;;;;;;;2.63;1.98;;;9.50;75.40;;;;;;4930227;29;20043;-89
2023/12/25 07:22:39;;;;;;;1.60;1.15;;;9.50;74.80;;;;;;4953024;29;20039;-92
2023/12/25 07:25:07;;;;;;;1.95;1.80;;;9.50;75.50;;;;;;4943404;29;20023;-92
2023/12/25 07:27:34;;;;;;;2.25;1.40;;;9.40;75.60;;;;;;4927594;29;20019;-90
2023/12/25 07:30:00;;;;;;;1.45;1.02;;;9.50;75.40;;;;;;4926580;29;20079;-91
2023/12/25 07:32:28;;;;;;;2.53;2.42;;;9.50;75.50;;;;;;4913874;29;20389;-92
2023/12/25 07:34:53;;;;;;;;;;;9.50;75.70;;;;;;4923922;29;20027;-91
2023/12/25 07:37:22;;;;;;;1.23;1.13;;;9.50;75.70;;;;;;4921534;29;19922;-91
2023/12/25 07:39:47;;;;;;;1.67;1.10;;;9.50;75.00;;;;;;4941750;29;20028;-93
2023/12/25 07:42:16;;;;;;;2.80;2.60;;;9.50;74.40;;;;;;4943490;29;20337;-92
2023/12/25 07:44:42;;;;;;;2.00;1.80;;;9.50;74.70;;;;;;4931981;29;20025;-91
2023/12/25 07:47:19;;;;;;;1.58;1.45;;;9.50;75.30;;;;;;4936486;29;20059;-91
2023/12/25 07:49:45;;;;;;;1.33;1.23;;;9.50;74.80;;;;;;4918201;29;20055;-90
2023/12/25 07:52:17;;;;;;;2.22;1.42;;;9.50;74.80;;;;;;4944216;29;20035;-92
2023/12/25 07:54:43;;;;;;;2.67;1.52;;;9.50;73.90;;;;;;4941874;29;20506;-92
2023/12/25 07:57:09;;;;;;;1.38;1.08;;;9.50;74.80;;;;;;4934510;29;20032;-91
2023/12/25 07:59:34;;;;;;;2.42;2.22;;;9.50;75.10;;;;;;4921336;29;20042;-89
2023/12/25 08:02:00;;;;;;;1.95;1.73;;;9.50;74.80;;;;;;4936067;29;20034;-93
2023/12/25 08:04:26;;;;;;;2.10;1.73;;;9.50;74.70;;;;;;4940834;29;20134;-92
2023/12/25 08:06:51;;;;;;;1.45;1.10;;;9.50;74.70;;;;;;4946563;29;20108;-94
2023/12/25 08:09:17;;;;;;;1.73;1.40;;;9.50;73.70;;;;;;4929878;29;20024;-92
2023/12/25 08:11:43;;;;;;;2.72;1.40;;;9.50;74.10;;;;;;4942357;29;20040;-92
2023/12/25 08:14:08;;;;;;;2.08;1.98;;;9.50;73.90;;;;;;4946593;29;20043;-92
2023/12/25 08:16:34;;;;;;;1.90;1.38;;;9.50;74.10;;;;;;4939091;29;20036;-91
2023/12/25 08:18:59;;;;;;;1.65;1.55;;;9.50;74.60;;;;;;4933788;29;20087;-92
2023/12/25 08:21:25;;;;;;;1.65;1.55;;;9.50;75.50;;;;;;4943923;29;20030;-90
2023/12/25 08:23:51;;;;;;;2.40;1.38;;;9.40;77.10;;;;;;4944660;29;20031;-91
2023/12/25 08:26:16;;;;;;;2.08;1.67;;;9.30;77.30;;;;;;4929052;29;20031;-91
2023/12/25 08:28:42;;;;;;;0.93;0.73;;;9.30;77.90;;;;;;4936565;29;20024;-93
2023/12/25 08:31:08;;;;;;;1.90;1.27;;;9.30;80.40;;;;;;4932968;29;20261;-91
2023/12/25 08:33:35;;;;;;;2.50;1.63;;;9.30;78.40;;;;;;4945847;29;20051;-91
2023/12/25 08:36:01;;;;;;;1.35;0.88;;;9.30;79.20;;;;;;4914052;29;20032;-91
2023/12/25 08:38:26;;;;;;;1.45;1.35;;;9.30;79.50;;;;;;4935596;29;20062;-90
2023/12/25 08:40:53;;;;;;;1.63;1.33;;;9.30;79.30;;;;;;4936208;29;20028;-91
2023/12/25 08:43:19;;;;;;;2.28;1.58;;;9.40;78.10;;;;;;4937423;29;20031;-91
2023/12/25 08:45:44;;;;;;;1.20;1.10;;;9.40;77.10;;;;;;4939230;29;20027;-91
2023/12/25 08:48:10;;;;;;;1.77;1.23;;;9.40;78.90;;;;;;4940980;29;20035;-90
2023/12/25 08:50:39;;;;;;;3.67;1.13;;;9.50;79.20;;;;;;4914278;29;20032;-92
2023/12/25 08:53:05;;;;;;;1.27;1.17;;;9.40;81.10;;;;;;4911855;29;20039;-91
2023/12/25 08:55:31;;;;;;;1.35;1.23;;;9.50;81.40;;;;;;4923402;29;20032;-91
2023/12/25 08:58:00;;;;;;;1.77;1.35;;;9.50;81.70;;;;;;4935263;29;20025;-91
2023/12/25 09:00:28;;;;;;;3.58;1.50;;;9.50;82.80;;;;;;4930873;29;20116;-91
2023/12/25 09:02:54;;;;;;;1.77;1.15;;;9.40;83.10;;;;;;4939895;29;20059;-89
2023/12/25 09:05:20;;;;;;;1.75;1.63;;;9.40;84.00;;;;;;4939540;29;20490;-90
2023/12/25 09:07:46;;;;;;;2.88;2.70;;;9.40;83.80;;;;;;4928302;29;20123;-91
2023/12/25 09:10:11;;;;;;;1.80;1.35;;;9.40;84.10;;;;;;4920918;29;20035;-91
2023/12/25 09:12:38;;;;;;;4.22;1.30;;;9.30;85.90;;;;;;4944529;29;20494;-90
2023/12/25 09:15:05;;;;;;;2.15;1.25;;;9.30;86.90;;;;;;4929947;29;20046;-94
2023/12/25 09:17:31;;;;;;;2.42;2.22;;;9.30;86.70;;;;;;4914840;29;20387;-94
2023/12/25 09:19:57;;;;;;;1.27;1.10;;;9.20;89.20;;;;;;4940368;29;20374;-92
2023/12/25 09:22:23;;;;;;;2.05;1.45;;;9.00;90.60;;;;;;4944100;29;20023;-89
2023/12/25 09:24:50;;;;;;;1.40;1.08;;;8.90;92.30;;;;;;4925688;29;20036;-91
2023/12/25 09:27:16;;;;;;;3.65;1.35;;;8.90;92.60;;;;;;4924647;29;20067;-92
2023/12/25 09:29:42;;;;;;;1.33;1.20;;;8.80;93.60;;;;;;4940825;29;20035;-92
2023/12/25 09:32:08;;;;;;;2.30;1.20;;;8.80;96.20;;;;;;4942075;29;20028;-92
2023/12/25 09:34:34;;;;;;;2.03;1.35;;;8.80;98.40;;;;;;4929737;29;20024;-90
2023/12/25 09:36:59;;;;;;;1.75;0.80;;;8.60;99.90;;;;;;4953939;29;20064;-92
2023/12/25 09:39:25;;;;;;;3.28;2.08;;;8.50;99.90;;;;;;4950050;29;20024;-91
2023/12/25 09:41:51;;;;;;;1.42;0.93;;;8.50;99.90;;;;;;4933799;29;20513;-91
2023/12/25 09:44:16;;;;;;;3.85;2.00;;;8.40;99.90;;;;;;4943055;29;20048;-92
2023/12/25 09:46:44;;;;;;;2.03;1.27;;;8.40;99.90;;;;;;4913638;29;20036;-90
2023/12/25 09:49:10;;;;;;;3.05;2.03;;;8.40;99.90;;;;;;4933469;29;20035;-90
2023/12/25 09:51:36;;;;;;;2.42;1.20;;;8.40;99.90;;;;;;4935495;29;20023;-92
2023/12/25 09:54:05;;;;;;;1.58;1.15;;;8.40;99.90;;;;;;4937780;29;20031;-91
2023/12/25 09:56:35;;;;;;;1.75;1.45;;;8.40;99.90;;;;;;4935873;29;20930;-92
2023/12/25 09:59:03;;;;;;;1.98;1.30;;;8.40;99.90;;;;;;4937273;29;20031;-93
2023/12/25 10:01:31;;;;;;;1.65;1.50;;;8.40;99.90;;;;;;4915518;29;20036;-92
2023/12/25 10:03:57;;;;;;;1.98;1.20;;;8.40;99.90;;;;;;4942815;29;20067;-91
2023/12/25 10:06:23;;;;;;;1.83;1.73;;;8.30;99.90;;;;;;4939887;29;20020;-92
2023/12/25 10:08:49;;;;;;;1.42;1.05;;;8.30;99.90;;;;;;4923988;29;20027;-93
2023/12/25 10:11:14;;;;;;;3.10;1.48;;;8.20;99.90;;;;;;4923447;29;20028;-93
2023/12/25 10:13:41;;;;;;;2.78;1.70;;;8.20;99.90;;;;;;4930321;29;20169;-90
2023/12/25 10:16:07;;;;;;;2.85;2.05;;;8.10;99.90;;;;;;4929090;29;20071;-91
2023/12/25 10:18:34;;;;;;;2.10;1.52;;;8.10;99.90;;;;;;4926540;29;20036;-92
2023/12/25 10:21:03;;;;;;;1.90;1.60;;;8.20;99.90;;;;;;4920969;29;20015;-91
2023/12/25 10:23:36;;;;;;;3.72;1.50;;;8.10;99.90;;;;;;4923110;29;20529;-90
2023/12/25 10:26:05;;;;;;;1.92;1.83;;;8.10;99.90;;;;;;4923578;29;20024;-92
2023/12/25 10:28:33;;;;;;;2.15;1.27;;;8.10;99.90;;;;;;4924664;29;20036;-92
2023/12/25 10:31:06;;;;;;;3.50;3.25;;;8.00;99.90;;;;;;4927460;29;20262;-90
2023/12/25 10:33:33;;;;;;;2.13;1.92;;;8.00;99.90;;;;;;4925529;29;20030;-91
2023/12/25 10:36:09;;;;;;;4.45;1.73;;;8.00;99.90;;;;;;4926627;29;20032;-91
2023/12/25 10:38:42;;;;;;;1.88;1.63;;;8.00;99.90;;;;;;4927145;29;20036;-91
2023/12/25 10:41:33;;;;;;;1.33;1.10;;;8.00;99.90;;;;;;4926978;29;20034;-90
2023/12/25 10:44:03;;;;;;;2.20;1.50;;;8.10;99.90;;;;;;4929364;29;20036;-90
2023/12/25 10:46:34;;;;;;;3.60;3.30;;;8.10;99.90;;;;;;4931748;29;20459;-93
2023/12/25 10:49:03;;;;;;;1.92;1.38;;;8.20;99.90;;;;;;4913644;29;20008;-91
2023/12/25 10:51:34;;;;;;;2.55;1.65;;;8.10;99.90;;;;;;4932175;29;20539;-90
2023/12/25 10:54:01;;;;;;;1.92;1.73;;;8.10;99.90;;;;;;4926152;29;20028;-91
2023/12/25 10:56:30;;;;;;;1.92;1.15;;;8.10;99.90;;;;;;4932359;29;20023;-92
2023/12/25 10:59:03;;;;;;;3.05;1.13;;;8.00;99.90;;;;;;4918975;29;20316;-92
2023/12/25 11:01:31;;;;;;;2.75;2.15;;;8.00;99.90;;;;;;4918844;29;20032;-92
2023/12/25 11:03:57;;;;;;;1.60;1.40;;;8.00;99.90;;;;;;4924855;29;20034;-91
2023/12/25 11:06:23;;;;;;;2.70;2.05;;;8.00;99.90;;;;;;4925057;29;20032;-90
2023/12/25 11:08:49;;;;;;;2.45;2.20;;;8.00;99.90;;;;;;4902730;29;20036;-91
2023/12/25 11:11:15;;;;;;;3.00;1.85;;;8.10;99.90;;;;;;4925781;29;20030;-93
2023/12/25 11:13:41;;;;;;;1.83;1.63;;;8.00;99.90;;;;;;4918317;29;20535;-92
2023/12/25 11:16:08;;;;;;;2.42;1.95;;;8.00;99.90;;;;;;4901271;29;20107;-92
2023/12/25 11:18:37;;;;;;;2.83;1.67;;;8.10;99.90;;;;;;4920002;29;20032;-93
2023/12/25 11:21:07;;;;;;;2.20;1.70;;;8.20;99.90;;;;;;4920311;29;20020;-93
2023/12/25 11:23:34;;;;;;;2.17;1.95;;;8.20;99.90;;;;;;4926813;29;20036;-92
2023/12/25 11:26:00;;;;;;;1.63;1.23;;;8.20;99.90;;;;;;4926751;29;20028;-92
2023/12/25 11:28:26;;;;;;;3.05;1.55;;;8.30;99.90;;;;;;4906956;29;20096;-92
2023/12/25 11:30:53;;;;;;;2.15;1.02;;;8.30;99.90;;;;;;4920647;29;20107;-90
2023/12/25 11:33:19;;;;;;;2.78;1.23;;;8.30;99.90;;;;;;4920876;29;20035;-92
2023/12/25 11:35:46;;;;;;;3.85;2.05;;;8.30;99.90;;;;;;4923627;29;20032;-92
2023/12/25 11:38:18;;;;;;;9.68;2.72;;;8.40;99.90;;;;;;4924593;29;20049;-94
2023/12/25 11:40:49;;;;;;;2.75;1.58;;;8.40;99.90;;;;;;4926805;29;20130;-91
2023/12/25 11:43:19;;;;;;;3.45;2.00;;;8.40;99.90;;;;;;4917116;29;20032;-93
2023/12/25 11:45:46;;;;;;;2.33;1.20;;;8.50;99.90;;;;;;4928886;29;20112;-91
2023/12/25 11:48:13;;;;;;;3.55;1.38;;;8.50;99.90;;;;;;4925971;29;20075;-94
2023/12/25 11:50:46;;;;;;;2.80;1.35;;;8.50;99.90;;;;;;4920534;29;20127;-92
2023/12/25 11:53:37;;;;;;;3.33;1.45;;;8.50;99.90;;;;;;4917904;29;20123;-95
2023/12/25 11:56:04;;;;;;;1.70;1.27;;;8.40;99.90;;;;;;4901280;29;20131;-94
2023/12/25 11:58:34;;;;;;;2.60;1.33;;;8.40;99.90;;;;;;4919452;29;20038;-92
2023/12/25 12:01:00;;;;;;;1.55;1.40;;;8.40;99.90;;;;;;4918586;29;20028;-93
2023/12/25 12:03:26;;;;;;;2.90;1.92;;;8.40;99.90;;;;;;4924627;29;20084;-92
2023/12/25 12:05:53;;;;;;;2.80;1.55;;;8.40;99.90;;;;;;4909640;29;20129;-91
2023/12/25 12:08:18;;;;;;;4.07;1.77;;;8.40;99.90;;;;;;4908781;29;20043;-92
2023/12/25 12:10:45;;;;;;;2.70;2.60;;;8.40;99.90;;;;;;4926313;29;20040;-92
2023/12/25 12:13:12;;;;;;;2.50;1.17;;;8.40;99.90;;;;;;4905535;29;20075;-93
2023/12/25 12:15:38;;;;;;;1.58;1.38;;;8.40;99.90;;;;;;4926339;29;20370;-93
2023/12/25 12:18:05;;;;;;;1.85;1.75;;;8.40;99.90;;;;;;4924728;29;20135;-90
2023/12/25 12:20:30;;;;;;;2.58;1.67;;;8.50;99.90;;;;;;4913158;29;20046;-92
2023/12/25 12:22:57;;;;;;;2.17;1.15;;;8.50;99.90;;;;;;4925782;29;20497;-92
2023/12/25 12:25:22;;;;;;;2.28;1.67;;;8.60;99.90;;;;;;4923855;29;20408;-92
2023/12/25 12:27:48;;;;;;;2.08;1.98;;;8.60;99.90;;;;;;4919880;29;20122;-92
2023/12/25 12:30:16;;;;;;;3.22;1.63;;;8.70;99.90;;;;;;4909500;29;20032;-92
2023/12/25 12:32:42;;;;;;;1.58;1.13;;;8.70;99.90;;;;;;4920754;29;20568;-92
2023/12/25 12:35:08;;;;;;;2.53;1.27;;;8.90;99.90;;;;;;4927564;29;20036;-92
2023/12/25 12:37:35;;;;;;;3.25;1.83;;;8.90;99.90;;;;;;4924596;29;20503;-92
2023/12/25 12:40:06;;;;;;;1.92;1.73;;;9.00;99.90;;;;;;4932643;29;20070;-92
2023/12/25 12:42:33;;;;;;;3.00;2.80;;;9.10;99.90;;;;;;4927716;29;20637;-92
2023/12/25 12:45:03;;;;;;;2.78;1.45;;;9.10;99.90;;;;;;4914190;29;20369;-93
2023/12/25 12:47:31;;;;;;;2.28;1.15;;;9.20;99.90;;;;;;4929973;29;20533;-94
2023/12/25 12:49:57;;;;;;;2.88;1.67;;;9.20;99.90;;;;;;4909142;29;20036;-93
2023/12/25 12:52:23;;;;;;;2.15;1.45;;;9.20;99.90;;;;;;4915348;29;20441;-92